Time;durP1;ratioP1;P1;durP2;ratioP2;P2;SDS_P1;SDS_P2;PMS_P1;PMS_P2;Temp;Humidity;BMP_temperature;BMP_pressure;BME280_temperature;BME280_humidity;BME280_pressure;Samples;Min_cycle;Max_cycle;Signal;HPM_P1;HPM_P2
2021/06/20 00:00:33;;;;;;;9.00;5.72;;;26.80;54.80;;;;;;6245792;27;81700;-66
2021/06/20 00:03:34;;;;;;;8.07;5.80;;;26.70;54.60;;;;;;6236424;27;80237;-66
2021/06/20 00:06:35;;;;;;;10.45;5.97;;;26.70;54.40;;;;;;6236713;27;80941;-66
2021/06/20 00:09:35;;;;;;;7.68;6.20;;;26.70;54.20;;;;;;6237590;27;81415;-66
2021/06/20 00:12:36;;;;;;;9.73;5.97;;;26.70;54.50;;;;;;6233019;27;80210;-66
2021/06/20 00:15:36;;;;;;;11.43;6.50;;;26.70;54.20;;;;;;6237743;27;80408;-65
2021/06/20 00:18:37;;;;;;;13.75;6.47;;;26.70;54.30;;;;;;6235929;27;83528;-67
2021/06/20 00:21:37;;;;;;;11.52;6.80;;;26.60;54.30;;;;;;6238316;27;80954;-65
2021/06/20 00:24:39;;;;;;;8.18;6.15;;;26.70;54.40;;;;;;6237545;27;80293;-65
2021/06/20 00:27:39;;;;;;;8.43;5.95;;;26.70;54.60;;;;;;6235687;27;80527;-66
2021/06/20 00:30:40;;;;;;;8.73;6.15;;;26.70;54.40;;;;;;6232750;27;80555;-66
2021/06/20 00:33:41;;;;;;;8.13;6.25;;;26.70;54.30;;;;;;6233351;27;80174;-65
2021/06/20 00:36:41;;;;;;;8.57;5.78;;;26.70;54.40;;;;;;6242406;27;80440;-65
2021/06/20 00:39:42;;;;;;;8.68;6.13;;;26.70;54.40;;;;;;6242544;27;80817;-65
2021/06/20 00:42:42;;;;;;;9.40;6.07;;;26.70;54.30;;;;;;6239837;27;80853;-67
2021/06/20 00:45:43;;;;;;;11.07;7.30;;;26.60;54.10;;;;;;6237941;27;80126;-67
2021/06/20 00:48:44;;;;;;;9.05;7.00;;;26.60;54.20;;;;;;6236150;27;80465;-66
2021/06/20 00:51:44;;;;;;;12.18;6.88;;;26.60;54.10;;;;;;6232200;27;80356;-65
2021/06/20 00:54:47;;;;;;;9.77;6.85;;;26.60;54.40;;;;;;6230631;28;80621;-66
2021/06/20 00:57:48;;;;;;;12.13;7.03;;;26.60;54.30;;;;;;6245435;27;80163;-65
2021/06/20 01:00:48;;;;;;;10.32;7.25;;;26.50;54.20;;;;;;6226303;27;80339;-66
2021/06/20 01:03:49;;;;;;;10.73;7.65;;;26.50;54.40;;;;;;6234853;27;80517;-67
2021/06/20 01:06:49;;;;;;;13.40;7.90;;;26.50;54.40;;;;;;6226278;27;80467;-67
2021/06/20 01:09:50;;;;;;;12.88;7.45;;;26.40;54.30;;;;;;6235346;27;80789;-67
2021/06/20 01:12:50;;;;;;;12.55;8.02;;;26.40;54.50;;;;;;6236794;27;80543;-67
2021/06/20 01:15:51;;;;;;;11.77;7.45;;;26.40;54.50;;;;;;6236298;27;80500;-66
2021/06/20 01:18:51;;;;;;;12.25;7.18;;;26.40;54.50;;;;;;6235192;28;80653;-68
2021/06/20 01:21:52;;;;;;;9.77;6.85;;;26.40;54.80;;;;;;6233964;27;80769;-67
2021/06/20 01:24:52;;;;;;;9.43;7.47;;;26.30;54.70;;;;;;6225732;28;81404;-65
2021/06/20 01:27:53;;;;;;;9.95;6.75;;;26.30;54.90;;;;;;6236857;27;80795;-65
2021/06/20 01:30:58;;;;;;;9.32;7.05;;;26.30;54.60;;;;;;6234090;27;83758;-66
2021/06/20 01:33:58;;;;;;;11.57;6.55;;;26.40;54.90;;;;;;6233588;27;81475;-67
2021/06/20 01:36:59;;;;;;;11.38;7.25;;;26.40;54.70;;;;;;6232260;27;81580;-66
2021/06/20 01:39:59;;;;;;;13.75;6.93;;;26.40;54.60;;;;;;6235108;27;80930;-66
2021/06/20 01:43:00;;;;;;;9.73;7.28;;;26.40;54.50;;;;;;6234150;27;81206;-67
2021/06/20 01:46:00;;;;;;;10.27;7.53;;;26.30;54.60;;;;;;6233854;27;81546;-67
2021/06/20 01:49:01;;;;;;;12.43;7.50;;;26.30;54.60;;;;;;6234252;28;80381;-66
2021/06/20 01:52:01;;;;;;;10.10;7.53;;;26.20;54.50;;;;;;6241603;27;80863;-66
2021/06/20 01:55:02;;;;;;;11.52;7.00;;;26.20;54.50;;;;;;6234844;28;80423;-66
2021/06/20 01:58:05;;;;;;;10.40;7.38;;;26.20;54.60;;;;;;6240870;28;81658;-66
2021/06/20 02:01:05;;;;;;;12.40;7.45;;;26.10;54.50;;;;;;6238980;27;83169;-66
2021/06/20 02:04:06;;;;;;;11.18;7.82;;;26.20;54.80;;;;;;6235410;27;80278;-66
2021/06/20 02:07:07;;;;;;;14.55;8.10;;;26.10;54.60;;;;;;6234037;27;81011;-66
2021/06/20 02:10:07;;;;;;;10.95;6.50;;;26.10;54.60;;;;;;6233380;27;80313;-66
2021/06/20 02:13:08;;;;;;;11.27;7.32;;;26.20;54.70;;;;;;6234941;28;80720;-66
2021/06/20 02:16:08;;;;;;;10.48;6.38;;;26.20;54.70;;;;;;6232857;27;80554;-67
2021/06/20 02:19:09;;;;;;;11.40;6.55;;;26.30;54.80;;;;;;6231933;27;80381;-66
2021/06/20 02:22:09;;;;;;;13.32;7.05;;;26.30;54.80;;;;;;6230114;28;80405;-66
2021/06/20 02:25:10;;;;;;;9.32;6.82;;;26.30;54.70;;;;;;6234491;27;81363;-66
2021/06/20 02:28:10;;;;;;;9.77;7.32;;;26.30;54.20;;;;;;6244123;27;81532;-66
2021/06/20 02:31:11;;;;;;;10.50;6.82;;;26.30;54.20;;;;;;6235094;27;80089;-66
2021/06/20 02:34:11;;;;;;;9.02;7.28;;;26.30;54.10;;;;;;6231214;27;81253;-67
2021/06/20 02:37:12;;;;;;;11.13;6.70;;;26.30;54.20;;;;;;6238603;28;81217;-69
2021/06/20 02:40:12;;;;;;;8.93;7.43;;;26.20;54.10;;;;;;6241730;27;80674;-66
2021/06/20 02:43:13;;;;;;;7.90;6.93;;;26.20;54.00;;;;;;6234461;27;80854;-67
2021/06/20 02:46:13;;;;;;;12.20;6.68;;;26.20;54.10;;;;;;6232537;27;80839;-67
2021/06/20 02:49:14;;;;;;;10.00;7.80;;;26.20;54.20;;;;;;6232234;27;84287;-67
2021/06/20 02:52:14;;;;;;;14.25;7.53;;;26.30;54.60;;;;;;6237558;27;81347;-67
2021/06/20 02:55:15;;;;;;;12.80;7.95;;;26.30;54.70;;;;;;6234121;27;80970;-66
2021/06/20 02:58:15;;;;;;;13.05;7.07;;;26.30;54.50;;;;;;6242624;27;80969;-67
2021/06/20 03:01:16;;;;;;;11.88;5.60;;;26.30;54.40;;;;;;6234664;27;80399;-67
2021/06/20 03:04:16;;;;;;;14.18;7.07;;;26.30;54.20;;;;;;6234733;27;80543;-66
2021/06/20 03:07:17;;;;;;;9.30;6.32;;;26.20;54.20;;;;;;6233515;27;80699;-67
2021/06/20 03:10:17;;;;;;;10.25;7.18;;;26.20;54.20;;;;;;6232619;28;80246;-66
2021/06/20 03:13:18;;;;;;;10.90;6.85;;;26.20;54.20;;;;;;6233520;28;80595;-66
2021/06/20 03:16:20;;;;;;;10.32;6.45;;;26.20;54.30;;;;;;6234982;27;80596;-66
2021/06/20 03:19:20;;;;;;;7.68;6.47;;;26.30;54.40;;;;;;6234933;27;81253;-66
2021/06/20 03:22:21;;;;;;;9.00;6.45;;;26.30;54.40;;;;;;6241390;27;80398;-65
2021/06/20 03:25:21;;;;;;;10.38;6.25;;;26.30;54.50;;;;;;6233609;27;80593;-66
2021/06/20 03:28:22;;;;;;;7.38;5.75;;;26.30;54.50;;;;;;6235453;27;80455;-67
2021/06/20 03:31:22;;;;;;;9.55;6.63;;;26.30;54.60;;;;;;6237108;27;80600;-67
2021/06/20 03:34:23;;;;;;;9.00;6.80;;;26.30;54.40;;;;;;6232945;27;80670;-67
2021/06/20 03:37:23;;;;;;;10.02;6.88;;;26.30;54.50;;;;;;6234168;27;80666;-67
2021/06/20 03:40:24;;;;;;;8.07;6.85;;;26.30;54.50;;;;;;6236667;27;83515;-67
2021/06/20 03:43:24;;;;;;;8.68;6.78;;;26.30;54.10;;;;;;6238754;27;80330;-66
2021/06/20 03:46:25;;;;;;;13.13;7.05;;;26.30;54.40;;;;;;6231257;27;80673;-65
2021/06/20 03:49:25;;;;;;;10.32;7.35;;;26.30;54.20;;;;;;6237535;27;80515;-64
2021/06/20 03:52:26;;;;;;;10.20;7.13;;;26.30;54.30;;;;;;6238805;27;80924;-66
2021/06/20 03:55:26;;;;;;;8.45;6.35;;;26.30;54.60;;;;;;6238754;27;80840;-66
2021/06/20 03:58:27;;;;;;;11.90;6.40;;;26.30;54.40;;;;;;6236119;27;83330;-66
2021/06/20 04:01:27;;;;;;;8.15;6.72;;;26.30;54.40;;;;;;6231844;27;81787;-66
2021/06/20 04:04:28;;;;;;;11.00;7.35;;;26.20;54.30;;;;;;6236182;27;81357;-66
2021/06/20 04:07:28;;;;;;;10.02;7.07;;;26.30;54.40;;;;;;6235340;27;80514;-67
2021/06/20 04:10:29;;;;;;;14.15;7.53;;;26.20;54.10;;;;;;6241321;27;80489;-66
2021/06/20 04:13:29;;;;;;;11.43;7.63;;;26.20;54.20;;;;;;6234413;27;80933;-66
2021/06/20 04:16:30;;;;;;;10.52;7.35;;;26.20;54.30;;;;;;6239382;27;81431;-66
2021/06/20 04:19:30;;;;;;;11.30;7.50;;;26.20;54.50;;;;;;6237218;27;87512;-66
2021/06/20 04:22:31;;;;;;;8.38;6.82;;;26.20;54.30;;;;;;6236806;27;80114;-68
2021/06/20 04:25:31;;;;;;;11.45;7.43;;;26.20;55.00;;;;;;6245424;27;81799;-66
2021/06/20 04:28:32;;;;;;;10.30;7.22;;;26.20;54.90;;;;;;6236670;27;80871;-64
2021/06/20 04:31:32;;;;;;;8.50;7.57;;;26.20;55.40;;;;;;6239529;27;81057;-66
2021/06/20 04:34:33;;;;;;;13.25;6.85;;;26.30;55.80;;;;;;6236245;27;82779;-66
2021/06/20 04:37:33;;;;;;;13.15;7.22;;;26.30;54.90;;;;;;6235936;27;80970;-64
2021/06/20 04:40:34;;;;;;;12.15;7.65;;;26.30;55.10;;;;;;6234964;28;80915;-64
2021/06/20 04:46:45;;;;;;;16.58;7.38;;;26.40;55.40;;;;;;6237322;27;81631;-64
2021/06/20 04:49:45;;;;;;;11.93;7.07;;;26.40;55.10;;;;;;6233473;27;81938;-64
2021/06/20 04:52:46;;;;;;;12.75;7.45;;;26.40;55.10;;;;;;6238265;27;81726;-64
2021/06/20 04:55:46;;;;;;;11.57;6.65;;;26.40;55.00;;;;;;6236025;27;80914;-65
2021/06/20 04:58:47;;;;;;;10.90;7.18;;;26.50;55.30;;;;;;6233202;27;80235;-65
2021/06/20 05:01:47;;;;;;;9.60;6.82;;;26.50;55.30;;;;;;6237015;27;80582;-64
2021/06/20 05:04:48;;;;;;;13.15;7.55;;;26.50;55.60;;;;;;6236568;27;80403;-65
2021/06/20 05:07:48;;;;;;;10.93;7.47;;;26.50;55.30;;;;;;6236606;27;80857;-64
2021/06/20 05:10:49;;;;;;;15.85;6.80;;;26.50;54.90;;;;;;6234289;27;83168;-65
2021/06/20 05:13:49;;;;;;;13.95;7.45;;;26.60;55.40;;;;;;6243492;27;80572;-64
2021/06/20 05:16:50;;;;;;;11.38;6.78;;;26.60;55.40;;;;;;6234271;27;80719;-64
2021/06/20 05:19:50;;;;;;;9.07;7.10;;;26.60;55.20;;;;;;6234202;27;80699;-64
2021/06/20 05:22:51;;;;;;;9.13;7.28;;;26.60;55.40;;;;;;6236781;27;80865;-64
2021/06/20 05:25:51;;;;;;;7.95;6.57;;;26.60;55.10;;;;;;6239836;27;81424;-66
2021/06/20 05:28:52;;;;;;;9.07;7.13;;;26.60;55.40;;;;;;6239451;27;80234;-65
2021/06/20 05:31:52;;;;;;;12.07;7.75;;;26.60;56.10;;;;;;6234801;27;81072;-64
2021/06/20 05:34:53;;;;;;;9.48;6.47;;;26.70;55.50;;;;;;6231727;27;81353;-64
2021/06/20 05:37:53;;;;;;;9.55;6.88;;;26.70;56.10;;;;;;6232601;27;81297;-65
2021/06/20 05:40:54;;;;;;;11.63;7.47;;;26.70;56.70;;;;;;6232433;27;80207;-66
2021/06/20 05:43:54;;;;;;;11.88;7.28;;;26.70;56.60;;;;;;6229607;27;80416;-65
2021/06/20 05:46:55;;;;;;;12.70;6.97;;;26.80;56.50;;;;;;6236045;28;80599;-65
2021/06/20 05:49:55;;;;;;;9.43;7.30;;;26.70;56.70;;;;;;6236021;27;80639;-66
2021/06/20 05:52:56;;;;;;;10.40;7.88;;;26.80;57.00;;;;;;6234149;28;80380;-65
2021/06/20 05:55:56;;;;;;;11.75;6.88;;;26.80;57.00;;;;;;6239215;27;83379;-65
2021/06/20 05:58:57;;;;;;;10.75;7.05;;;26.80;56.70;;;;;;6237847;27;80261;-65
2021/06/20 06:01:58;;;;;;;10.30;7.47;;;26.80;56.80;;;;;;6234416;27;80899;-65
2021/06/20 06:04:58;;;;;;;14.13;8.27;;;26.80;56.50;;;;;;6226977;28;80567;-66
2021/06/20 06:07:59;;;;;;;11.73;7.68;;;26.80;56.30;;;;;;6237194;27;80326;-66
2021/06/20 06:10:59;;;;;;;9.43;7.50;;;26.80;56.80;;;;;;6231334;27;80519;-65
2021/06/20 06:14:00;;;;;;;14.68;7.75;;;26.70;56.30;;;;;;6215265;27;83287;-64
2021/06/20 06:17:00;;;;;;;11.27;7.47;;;26.80;56.20;;;;;;6232653;27;81086;-64
2021/06/20 06:20:01;;;;;;;8.48;7.15;;;26.80;56.40;;;;;;6231760;27;80463;-64
2021/06/20 06:23:01;;;;;;;9.25;7.72;;;26.80;56.10;;;;;;6231895;28;80704;-67
2021/06/20 06:26:02;;;;;;;12.65;8.50;;;26.80;55.90;;;;;;6236496;27;80772;-66
2021/06/20 06:29:02;;;;;;;9.50;7.40;;;26.80;55.60;;;;;;6240028;27;81235;-64
2021/06/20 06:32:03;;;;;;;9.40;7.47;;;26.80;55.90;;;;;;6232108;27;80137;-64
2021/06/20 06:35:03;;;;;;;9.95;7.32;;;26.80;56.20;;;;;;6233230;28;80928;-65
2021/06/20 06:38:04;;;;;;;14.07;7.28;;;26.70;55.70;;;;;;6234830;27;80567;-66
2021/06/20 06:41:04;;;;;;;11.27;8.32;;;26.70;55.80;;;;;;6235391;28;81136;-66
2021/06/20 06:44:05;;;;;;;12.45;8.38;;;26.70;56.50;;;;;;6249670;27;80520;-66
2021/06/20 06:47:06;;;;;;;10.98;7.72;;;26.80;56.70;;;;;;6235989;28;80487;-67
2021/06/20 06:50:06;;;;;;;14.35;8.25;;;26.70;56.90;;;;;;6230507;27;80365;-66
2021/06/20 06:53:07;;;;;;;12.85;8.18;;;26.80;56.80;;;;;;6229177;27;81005;-67
2021/06/20 06:56:07;;;;;;;11.93;8.73;;;26.80;56.60;;;;;;6230057;27;82078;-66
2021/06/20 06:59:08;;;;;;;12.05;8.43;;;26.80;56.60;;;;;;6232882;28;80491;-67
2021/06/20 07:02:09;;;;;;;11.40;8.55;;;26.80;56.50;;;;;;6232849;28;80664;-67
2021/06/20 07:05:10;;;;;;;12.50;8.82;;;26.90;56.70;;;;;;6233124;27;81067;-66
2021/06/20 07:08:11;;;;;;;12.18;8.88;;;26.90;56.70;;;;;;6240581;27;81474;-66
2021/06/20 07:11:11;;;;;;;13.43;9.43;;;26.90;56.70;;;;;;6234731;27;80284;-67
2021/06/20 07:14:14;;;;;;;12.20;8.88;;;26.90;56.70;;;;;;6240210;27;80372;-66
2021/06/20 07:17:14;;;;;;;12.98;9.43;;;26.90;56.60;;;;;;6235341;27;80720;-65
2021/06/20 07:20:15;;;;;;;22.83;10.40;;;26.90;56.60;;;;;;6232813;27;81155;-66
2021/06/20 07:23:16;;;;;;;16.27;10.57;;;26.90;57.10;;;;;;6232277;27;82850;-65
2021/06/20 07:26:16;;;;;;;14.13;9.48;;;26.90;57.10;;;;;;6227275;28;83419;-65
2021/06/20 07:29:17;;;;;;;14.30;10.30;;;26.90;57.50;;;;;;6229628;27;82741;-66
2021/06/20 07:32:17;;;;;;;14.95;10.90;;;26.90;57.70;;;;;;6230965;27;83200;-65
2021/06/20 07:35:18;;;;;;;18.42;10.77;;;26.90;57.90;;;;;;6220156;28;83680;-65
2021/06/20 07:38:18;;;;;;;121.85;47.90;;;26.90;57.70;;;;;;6220848;27;82976;-68
2021/06/20 07:41:19;;;;;;;321.98;116.63;;;26.90;57.70;;;;;;6223690;28;84477;-67
2021/06/20 07:44:19;;;;;;;265.63;101.18;;;26.90;58.30;;;;;;6225375;27;85623;-66
2021/06/20 07:47:20;;;;;;;228.50;92.28;;;26.90;58.20;;;;;;6220702;28;85354;-67
2021/06/20 07:50:20;;;;;;;283.20;116.97;;;27.00;58.10;;;;;;6218266;28;85784;-66
2021/06/20 07:53:21;;;;;;;419.63;157.25;;;27.00;58.20;;;;;;6217926;27;88777;-66
2021/06/20 07:56:21;;;;;;;303.20;117.57;;;27.00;58.30;;;;;;6223319;27;85824;-68
2021/06/20 07:59:22;;;;;;;251.80;98.43;;;27.00;58.00;;;;;;6219190;28;86416;-66
2021/06/20 08:02:23;;;;;;;204.25;86.47;;;27.00;57.90;;;;;;6224187;28;85171;-65
2021/06/20 08:05:23;;;;;;;161.02;66.47;;;27.10;57.90;;;;;;6223881;27;83641;-67
2021/06/20 08:08:24;;;;;;;162.38;61.45;;;27.10;58.00;;;;;;6222932;27;83293;-66
2021/06/20 08:11:24;;;;;;;125.80;54.58;;;27.10;57.90;;;;;;6227370;27;83158;-68
2021/06/20 08:14:25;;;;;;;115.88;48.75;;;27.10;58.10;;;;;;6235657;27;82946;-67
2021/06/20 08:17:25;;;;;;;108.03;44.88;;;27.10;57.70;;;;;;6231570;27;83567;-66
2021/06/20 08:20:26;;;;;;;97.43;41.05;;;27.10;57.60;;;;;;6227687;27;82899;-66
2021/06/20 08:23:26;;;;;;;88.00;39.20;;;27.10;57.40;;;;;;6225177;28;83480;-68
2021/06/20 08:26:27;;;;;;;78.65;33.38;;;27.10;57.40;;;;;;6235566;27;83926;-67
2021/06/20 08:29:27;;;;;;;56.53;27.70;;;27.20;57.30;;;;;;6234756;27;83097;-66
2021/06/20 08:32:30;;;;;;;53.60;25.38;;;27.20;57.50;;;;;;6237002;27;83647;-66
2021/06/20 08:35:30;;;;;;;40.30;20.20;;;27.20;57.40;;;;;;6230967;28;85212;-67
2021/06/20 08:38:31;;;;;;;38.80;18.67;;;27.10;57.40;;;;;;6231661;27;84302;-68
2021/06/20 08:41:32;;;;;;;30.42;15.15;;;27.20;57.30;;;;;;6232419;27;84728;-68
2021/06/20 08:44:32;;;;;;;24.80;12.63;;;27.10;57.60;;;;;;6233833;27;83184;-67
2021/06/20 08:47:33;;;;;;;16.05;10.27;;;27.20;57.10;;;;;;6229540;27;82836;-67
2021/06/20 08:50:34;;;;;;;14.98;9.45;;;27.20;56.50;;;;;;6240515;27;84640;-67
2021/06/20 08:53:34;;;;;;;13.63;9.38;;;27.20;57.10;;;;;;6243265;27;83469;-66
2021/06/20 08:56:35;;;;;;;18.10;9.05;;;27.10;57.20;;;;;;6247956;27;80496;-66
2021/06/20 08:59:35;;;;;;;14.35;8.52;;;27.20;57.90;;;;;;6234466;27;80950;-67
2021/06/20 09:02:36;;;;;;;10.95;7.28;;;27.20;58.40;;;;;;6236462;27;80463;-66
2021/06/20 09:05:36;;;;;;;11.98;8.13;;;27.20;57.90;;;;;;6230698;28;81114;-67
2021/06/20 09:08:37;;;;;;;11.70;7.50;;;27.20;58.30;;;;;;6237535;27;81474;-68
2021/06/20 09:11:38;;;;;;;9.13;7.43;;;27.20;57.60;;;;;;6231109;27;83725;-68
2021/06/20 09:14:38;;;;;;;15.57;7.15;;;27.20;57.10;;;;;;6236819;27;80547;-68
2021/06/20 09:17:39;;;;;;;10.90;6.85;;;27.20;56.70;;;;;;6234440;27;80633;-68
2021/06/20 09:20:39;;;;;;;10.75;6.60;;;27.20;56.70;;;;;;6227920;28;83445;-68
2021/06/20 09:23:40;;;;;;;10.27;6.65;;;27.20;57.00;;;;;;6225774;28;80684;-67
2021/06/20 09:26:41;;;;;;;7.60;6.28;;;27.20;56.20;;;;;;6228089;28;80761;-67
2021/06/20 09:29:41;;;;;;;9.68;5.65;;;27.20;55.80;;;;;;6230155;27;81298;-68
2021/06/20 09:32:42;;;;;;;8.25;5.68;;;27.30;55.60;;;;;;6249694;27;80072;-67
2021/06/20 09:35:42;;;;;;;6.43;5.57;;;27.20;55.60;;;;;;6234548;27;80764;-67
2021/06/20 09:38:43;;;;;;;8.77;5.68;;;27.20;55.00;;;;;;6236034;28;80520;-67
2021/06/20 09:41:44;;;;;;;7.88;5.00;;;27.30;54.90;;;;;;6244995;27;80756;-66
2021/06/20 09:44:44;;;;;;;8.25;6.35;;;27.20;53.90;;;;;;6236689;27;80949;-67
2021/06/20 09:47:45;;;;;;;12.45;7.22;;;27.30;55.00;;;;;;6235133;27;80651;-67
2021/06/20 09:50:48;;;;;;;14.45;7.50;;;27.30;54.10;;;;;;6237553;28;80725;-66
2021/06/20 09:53:49;;;;;;;28.58;8.90;;;27.30;54.20;;;;;;6232705;27;80317;-68
2021/06/20 09:56:49;;;;;;;13.52;6.78;;;27.40;55.30;;;;;;6243387;27;80842;-68
2021/06/20 09:59:50;;;;;;;33.67;13.80;;;27.40;53.10;;;;;;6232967;27;80521;-68
2021/06/20 10:02:51;;;;;;;28.10;11.63;;;27.40;56.90;;;;;;6228714;27;83317;-68
2021/06/20 10:05:53;;;;;;;25.88;10.07;;;27.40;56.60;;;;;;6227036;28;83051;-68
2021/06/20 10:08:53;;;;;;;19.77;7.95;;;27.50;56.00;;;;;;6229846;27;83044;-67
2021/06/20 10:11:53;;;;;;;18.48;7.13;;;27.50;54.10;;;;;;6238153;27;83553;-67
2021/06/20 10:14:54;;;;;;;17.42;7.05;;;27.50;54.10;;;;;;6233773;27;82095;-68
2021/06/20 10:17:57;;;;;;;18.13;6.95;;;27.50;54.40;;;;;;6233283;27;80374;-67
2021/06/20 10:20:58;;;;;;;19.10;7.60;;;27.50;55.00;;;;;;6233840;27;81481;-67
2021/06/20 10:23:58;;;;;;;8.30;5.80;;;27.50;55.40;;;;;;6234244;27;80426;-67
2021/06/20 10:26:59;;;;;;;12.88;6.47;;;27.50;54.30;;;;;;6233843;27;80242;-68
2021/06/20 10:29:59;;;;;;;7.95;5.35;;;27.60;53.90;;;;;;6231883;27;81026;-68
2021/06/20 10:33:00;;;;;;;9.50;5.35;;;27.60;53.70;;;;;;6232006;27;80462;-68
2021/06/20 10:36:01;;;;;;;9.30;5.68;;;27.60;53.70;;;;;;6233244;27;82045;-68
2021/06/20 10:39:02;;;;;;;7.65;5.07;;;27.70;54.00;;;;;;6231932;27;80416;-68
2021/06/20 10:42:02;;;;;;;9.30;5.80;;;27.60;53.60;;;;;;6231623;28;83032;-68
2021/06/20 10:45:03;;;;;;;10.45;4.75;;;27.60;53.10;;;;;;6234505;27;80344;-68
2021/06/20 10:48:03;;;;;;;10.00;5.35;;;27.70;53.60;;;;;;6231552;27;82930;-68
2021/06/20 10:51:04;;;;;;;7.85;4.70;;;27.70;53.90;;;;;;6236709;27;80312;-67
2021/06/20 10:54:04;;;;;;;5.38;4.88;;;27.70;53.80;;;;;;6231980;27;80701;-68
2021/06/20 10:57:06;;;;;;;11.68;4.95;;;27.70;53.20;;;;;;6231247;28;81399;-68
2021/06/20 11:00:06;;;;;;;6.85;4.60;;;27.70;54.20;;;;;;6224309;27;80473;-68
2021/06/20 11:03:07;;;;;;;6.75;4.35;;;27.70;53.60;;;;;;6228633;27;82010;-68
2021/06/20 11:06:11;;;;;;;8.13;5.45;;;27.80;53.50;;;;;;6232223;28;80526;-68
2021/06/20 11:09:11;;;;;;;6.97;4.93;;;27.70;53.70;;;;;;6233616;28;82414;-69
2021/06/20 11:12:12;;;;;;;5.22;4.22;;;27.70;53.00;;;;;;6234980;28;80507;-70
2021/06/20 11:15:12;;;;;;;5.57;4.68;;;27.70;53.80;;;;;;6237854;27;80418;-67
2021/06/20 11:18:13;;;;;;;6.78;4.25;;;27.60;54.00;;;;;;6235598;27;81713;-69
2021/06/20 11:21:13;;;;;;;5.22;4.30;;;27.70;53.70;;;;;;6233467;27;81509;-68
2021/06/20 11:24:15;;;;;;;4.47;3.83;;;27.60;53.50;;;;;;6227100;28;80546;-69
2021/06/20 11:27:15;;;;;;;5.05;4.00;;;27.80;50.90;;;;;;6228118;28;81714;-70
2021/06/20 11:30:16;;;;;;;5.65;4.35;;;27.80;50.80;;;;;;6219646;27;81468;-68
2021/06/20 11:33:16;;;;;;;6.50;4.20;;;27.80;50.60;;;;;;6230347;28;80309;-69
2021/06/20 11:36:20;;;;;;;5.20;4.70;;;27.90;49.90;;;;;;6233106;28;81616;-68
2021/06/20 11:39:20;;;;;;;5.90;4.22;;;27.80;51.40;;;;;;6233362;27;80725;-68
2021/06/20 11:42:21;;;;;;;5.63;5.00;;;27.80;51.10;;;;;;6242563;27;80602;-67
2021/06/20 11:45:21;;;;;;;4.28;3.88;;;27.80;51.70;;;;;;6233188;27;81346;-67
2021/06/20 11:48:22;;;;;;;5.97;3.97;;;27.80;52.10;;;;;;6235567;27;81645;-68
2021/06/20 11:51:22;;;;;;;5.65;3.65;;;27.90;52.40;;;;;;6237723;27;80753;-67
2021/06/20 11:54:23;;;;;;;8.55;4.68;;;27.90;53.20;;;;;;6235562;27;80478;-68
2021/06/20 11:57:24;;;;;;;14.20;3.83;;;27.80;53.50;;;;;;6237979;27;83914;-69
2021/06/20 12:00:24;;;;;;;23.67;3.70;;;27.80;51.10;;;;;;6243580;27;80285;-68
2021/06/20 12:03:26;;;;;;;6.18;4.47;;;27.80;49.50;;;;;;6235497;27;80765;-68
2021/06/20 12:06:27;;;;;;;4.00;3.38;;;27.80;49.30;;;;;;6234122;27;80612;-69
2021/06/20 12:09:27;;;;;;;7.22;3.83;;;27.80;49.00;;;;;;6235567;27;80992;-68
2021/06/20 12:12:28;;;;;;;4.05;3.45;;;27.80;48.60;;;;;;6232716;27;80647;-68
2021/06/20 12:15:28;;;;;;;5.55;4.25;;;27.80;49.10;;;;;;6235609;27;80569;-68
2021/06/20 12:18:29;;;;;;;6.00;3.88;;;27.90;49.10;;;;;;6236948;27;80696;-68
2021/06/20 12:21:29;;;;;;;5.65;3.80;;;27.90;49.80;;;;;;6236165;27;80272;-68
2021/06/20 12:24:30;;;;;;;3.55;3.25;;;28.00;49.70;;;;;;6238611;28;83336;-69
2021/06/20 12:27:30;;;;;;;5.65;3.63;;;28.00;49.70;;;;;;6234717;27;80397;-69
2021/06/20 12:30:31;;;;;;;5.78;3.60;;;28.00;50.00;;;;;;6235179;28;82750;-67
2021/06/20 12:33:31;;;;;;;5.78;4.18;;;28.10;50.60;;;;;;6235731;27;80954;-68
2021/06/20 12:36:32;;;;;;;5.20;3.90;;;28.10;49.90;;;;;;6239477;27;83116;-67
2021/06/20 12:39:32;;;;;;;5.22;3.80;;;28.10;50.50;;;;;;6239833;27;80816;-66
2021/06/20 12:42:33;;;;;;;6.45;3.83;;;28.00;50.60;;;;;;6245075;27;81153;-67
2021/06/20 12:45:33;;;;;;;4.78;4.25;;;28.00;50.40;;;;;;6239973;27;81918;-68
2021/06/20 12:48:34;;;;;;;5.43;4.03;;;28.00;50.80;;;;;;6237485;27;81828;-67
2021/06/20 12:51:34;;;;;;;5.40;4.00;;;28.10;50.40;;;;;;6237021;27;81474;-68
2021/06/20 12:54:35;;;;;;;5.57;4.70;;;28.10;50.60;;;;;;6234852;27;80560;-68
2021/06/20 12:57:35;;;;;;;7.15;4.53;;;28.10;50.50;;;;;;6233932;27;80463;-69
2021/06/20 13:00:36;;;;;;;5.60;4.30;;;28.00;50.50;;;;;;6232701;27;81186;-67
2021/06/20 13:03:36;;;;;;;8.00;4.25;;;28.00;50.30;;;;;;6238021;27;81498;-68
2021/06/20 13:06:37;;;;;;;4.53;3.58;;;28.00;50.40;;;;;;6229127;27;80850;-70
2021/06/20 13:09:38;;;;;;;4.57;4.05;;;28.20;49.50;;;;;;6234814;27;81068;-68
2021/06/20 13:12:38;;;;;;;4.53;3.35;;;28.40;47.90;;;;;;6235757;27;81396;-69
2021/06/20 13:15:39;;;;;;;4.13;3.72;;;28.60;47.80;;;;;;6234715;27;80120;-71
2021/06/20 13:18:39;;;;;;;8.65;3.95;;;28.60;47.30;;;;;;6230316;28;80762;-73
2021/06/20 13:21:40;;;;;;;7.07;3.55;;;28.60;47.30;;;;;;6231063;27;80408;-70
2021/06/20 13:24:40;;;;;;;4.55;3.72;;;28.60;47.50;;;;;;6233197;27;81314;-70
2021/06/20 13:27:41;;;;;;;4.72;4.13;;;28.40;47.70;;;;;;6230310;28;83621;-69
2021/06/20 13:30:41;;;;;;;3.25;3.03;;;28.40;48.60;;;;;;6231333;27;80859;-68
2021/06/20 13:33:42;;;;;;;4.10;3.30;;;28.40;47.70;;;;;;6239454;27;80909;-68
2021/06/20 13:36:42;;;;;;;4.47;3.78;;;28.50;47.50;;;;;;6237108;27;81033;-68
2021/06/20 13:39:43;;;;;;;4.68;3.83;;;28.40;48.10;;;;;;6237052;27;80412;-70
2021/06/20 13:42:43;;;;;;;7.65;4.10;;;28.40;49.00;;;;;;6236758;27;81080;-68
2021/06/20 13:45:44;;;;;;;4.55;3.45;;;28.30;49.10;;;;;;6228902;28;80492;-69
2021/06/20 13:48:44;;;;;;;5.10;4.57;;;28.30;49.90;;;;;;6230025;27;80371;-67
2021/06/20 13:51:45;;;;;;;9.27;4.38;;;28.30;51.00;;;;;;6233907;28;80390;-68
2021/06/20 13:54:51;;;;;;;5.22;4.72;;;28.30;50.90;;;;;;6230379;27;80626;-68
2021/06/20 13:57:51;;;;;;;4.93;4.30;;;28.20;50.80;;;;;;6227518;27;80395;-67
2021/06/20 14:00:54;;;;;;;4.65;4.25;;;28.20;50.50;;;;;;6235021;27;83288;-68
2021/06/20 14:03:54;;;;;;;5.68;3.55;;;28.20;50.90;;;;;;6232476;28;81114;-69
2021/06/20 14:06:55;;;;;;;6.20;3.80;;;28.20;50.10;;;;;;6233329;27;80546;-68
2021/06/20 14:09:55;;;;;;;4.65;3.92;;;28.20;51.00;;;;;;6238133;27;80781;-69
2021/06/20 14:12:56;;;;;;;3.53;3.17;;;28.20;49.80;;;;;;6232825;27;80290;-67
2021/06/20 14:15:57;;;;;;;8.40;5.10;;;28.20;49.80;;;;;;6237973;27;80310;-68
2021/06/20 14:18:57;;;;;;;4.25;3.47;;;28.20;49.90;;;;;;6232476;27;80699;-68
2021/06/20 14:21:58;;;;;;;4.55;4.15;;;28.20;50.60;;;;;;6232757;27;81302;-68
2021/06/20 14:24:59;;;;;;;5.10;3.45;;;28.20;50.60;;;;;;6236979;28;81244;-66
2021/06/20 14:27:59;;;;;;;5.07;3.90;;;28.20;50.10;;;;;;6235343;27;81532;-67
2021/06/20 14:30:59;;;;;;;4.93;3.70;;;28.20;50.20;;;;;;6228829;28;80781;-69
2021/06/20 14:34:00;;;;;;;5.63;3.60;;;28.20;50.30;;;;;;6235277;27;80580;-70
2021/06/20 14:37:01;;;;;;;4.22;3.83;;;28.20;50.10;;;;;;6232660;27;80165;-69
2021/06/20 14:40:01;;;;;;;45.17;20.30;;;28.20;50.90;;;;;;6228074;28;80752;-69
2021/06/20 14:43:04;;;;;;;86.20;34.45;;;28.20;50.70;;;;;;6230539;27;83105;-67
2021/06/20 14:46:04;;;;;;;113.18;43.25;;;28.20;49.60;;;;;;6226439;28;83209;-68
2021/06/20 14:49:05;;;;;;;135.82;53.25;;;28.30;49.20;;;;;;6229456;27;83390;-67
2021/06/20 14:52:05;;;;;;;127.82;46.70;;;28.30;50.00;;;;;;6225648;27;83159;-66
2021/06/20 14:55:06;;;;;;;66.20;26.05;;;28.30;50.30;;;;;;6235854;27;82850;-67
2021/06/20 14:58:06;;;;;;;68.53;27.40;;;28.30;50.40;;;;;;6230501;27;84496;-68
2021/06/20 15:01:07;;;;;;;49.22;21.65;;;28.20;51.00;;;;;;6240800;27;82865;-67
2021/06/20 15:04:07;;;;;;;34.60;16.08;;;28.20;50.60;;;;;;6231596;27;83429;-67
2021/06/20 15:07:08;;;;;;;25.95;12.18;;;28.20;50.80;;;;;;6226999;28;85831;-66
2021/06/20 15:10:09;;;;;;;18.40;9.05;;;28.20;50.40;;;;;;6216661;28;83502;-66
2021/06/20 15:13:09;;;;;;;16.60;8.10;;;28.20;50.10;;;;;;6229724;28;83100;-66
2021/06/20 15:16:09;;;;;;;20.13;7.50;;;28.10;50.50;;;;;;6232455;27;80393;-66
2021/06/20 15:19:10;;;;;;;12.35;5.85;;;28.10;51.10;;;;;;6231610;27;80640;-68
2021/06/20 15:22:10;;;;;;;10.77;6.25;;;28.10;49.70;;;;;;6229610;28;81320;-66
2021/06/20 15:25:11;;;;;;;6.45;4.97;;;28.10;50.30;;;;;;6231528;27;81317;-67
2021/06/20 15:28:12;;;;;;;8.55;5.55;;;28.10;50.10;;;;;;6229545;28;80417;-68
2021/06/20 15:31:12;;;;;;;9.75;5.95;;;28.10;49.90;;;;;;6230999;28;80618;-67